createdAt,value
2023-01-17T00:01:15.392Z,10.43
2023-01-17T00:03:59.026Z,12.60
2023-01-17T00:06:44.073Z,11.13
2023-01-17T00:09:29.677Z,15.65
2023-01-17T00:11:58.922Z,12.60
2023-01-17T00:14:27.139Z,16.73
2023-01-17T00:16:54.733Z,15.85
2023-01-17T00:19:41.573Z,10.75
2023-01-17T00:22:29.772Z,13.32
2023-01-17T00:25:14.568Z,12.18
2023-01-17T00:27:42.223Z,15.02
2023-01-17T00:30:10.194Z,14.50
2023-01-17T00:32:36.519Z,13.27
2023-01-17T00:35:02.866Z,16.27
2023-01-17T00:37:29.134Z,15.15
2023-01-17T00:39:55.441Z,11.45
2023-01-17T00:42:21.820Z,13.30
2023-01-17T00:45:08.075Z,12.45
2023-01-17T00:47:53.210Z,9.82
2023-01-17T00:50:38.253Z,10.30
2023-01-17T00:53:23.741Z,10.07
2023-01-17T00:56:08.845Z,12.65
2023-01-17T00:58:53.891Z,6.75
2023-01-17T01:01:40.466Z,9.35
2023-01-17T01:04:25.834Z,10.17
2023-01-17T01:07:10.927Z,10.98
2023-01-17T01:09:55.924Z,9.88
2023-01-17T01:12:40.835Z,12.00
2023-01-17T01:15:26.405Z,8.38
2023-01-17T01:18:12.538Z,10.57
2023-01-17T01:20:57.640Z,10.70
2023-01-17T01:23:42.767Z,15.57
2023-01-17T01:26:27.913Z,14.40
2023-01-17T01:29:12.988Z,12.90
2023-01-17T01:31:58.105Z,9.43
2023-01-17T01:34:26.781Z,23.27
2023-01-17T01:36:54.117Z,14.45
2023-01-17T01:39:21.449Z,11.52
2023-01-17T01:41:48.894Z,11.93
2023-01-17T01:44:34.205Z,7.20
2023-01-17T01:47:01.736Z,11.23
2023-01-17T01:49:30.470Z,9.75
2023-01-17T01:52:00.780Z,6.53
2023-01-17T01:54:31.398Z,9.55
2023-01-17T01:57:00.305Z,6.47
2023-01-17T01:59:30.665Z,9.63
2023-01-17T02:02:10.632Z,7.70
2023-01-17T02:04:40.966Z,4.78
2023-01-17T02:07:11.069Z,4.90
2023-01-17T02:09:38.482Z,4.95
2023-01-17T02:12:06.944Z,7.78
2023-01-17T02:14:37.317Z,8.98
2023-01-17T02:17:11.836Z,7.25
2023-01-17T02:19:56.002Z,10.32
2023-01-17T02:22:36.208Z,8.93
2023-01-17T02:25:12.574Z,5.43
2023-01-17T02:27:47.884Z,3.75
2023-01-17T02:30:34.404Z,2.97
2023-01-17T02:33:04.431Z,3.17
2023-01-17T02:35:38.407Z,1.83
2023-01-17T02:38:13.157Z,2.58
2023-01-17T02:40:42.488Z,1.90
2023-01-17T02:43:13.240Z,5.03
2023-01-17T02:45:45.551Z,1.58
2023-01-17T02:48:15.569Z,2.15
2023-01-17T02:50:56.288Z,1.92
2023-01-17T02:53:30.831Z,3.92
2023-01-17T02:56:06.296Z,5.60
2023-01-17T02:58:40.845Z,6.28
2023-01-17T03:01:15.763Z,5.55
2023-01-17T03:03:48.216Z,3.88
2023-01-17T03:06:21.307Z,3.13
2023-01-17T03:08:54.350Z,3.42
2023-01-17T03:11:21.691Z,3.17
2023-01-17T03:13:49.074Z,2.25
2023-01-17T03:16:21.734Z,3.88
2023-01-17T03:18:49.202Z,1.92
2023-01-17T03:21:16.645Z,3.33
2023-01-17T03:23:44.106Z,5.93
2023-01-17T03:26:11.501Z,1.58
2023-01-17T03:28:44.246Z,2.42
2023-01-17T03:31:17.052Z,2.25
2023-01-17T03:33:47.837Z,2.10
2023-01-17T03:36:18.436Z,4.47
2023-01-17T03:38:48.511Z,4.00
2023-01-17T03:41:17.306Z,8.65
2023-01-17T03:43:44.712Z,6.25
2023-01-17T03:46:19.089Z,10.95
2023-01-17T03:48:49.374Z,5.03
2023-01-17T03:51:17.749Z,6.28
2023-01-17T03:53:47.969Z,7.53
2023-01-17T03:56:15.791Z,9.65
2023-01-17T04:01:10.587Z,4.03
2023-01-17T04:03:40.338Z,12.18
2023-01-17T04:06:09.360Z,14.90
2023-01-17T04:13:34.445Z,20.33
2023-01-17T04:16:05.016Z,25.93
2023-01-17T12:54:12.981Z,20.02
2023-01-17T12:56:44.515Z,16.23
2023-01-17T12:59:15.180Z,13.73
2023-01-17T13:01:57.342Z,23.33
2023-01-17T13:04:30.541Z,16.25
2023-01-17T13:07:05.655Z,17.85
2023-01-17T13:09:46.556Z,26.13
2023-01-17T13:12:17.263Z,14.98
2023-01-17T13:14:49.007Z,22.88
2023-01-17T13:17:25.386Z,13.20
2023-01-17T13:19:56.886Z,19.50
2023-01-17T13:22:27.232Z,12.25
2023-01-17T13:25:12.402Z,12.48
2023-01-17T13:27:56.409Z,16.75
2023-01-17T13:30:37.703Z,14.45
2023-01-17T13:33:21.203Z,15.57
2023-01-17T13:35:59.183Z,15.27
2023-01-17T13:38:37.999Z,16.20
2023-01-17T13:41:19.248Z,12.80
2023-01-17T13:44:07.906Z,15.90
2023-01-17T13:46:51.451Z,12.90
2023-01-17T13:49:33.947Z,14.88
2023-01-17T13:52:12.664Z,19.67
2023-01-17T13:54:44.208Z,28.42
2023-01-17T13:57:38.457Z,12.90
2023-01-17T14:00:26.250Z,20.88
2023-01-17T14:02:55.516Z,18.48
2023-01-17T14:05:43.201Z,19.33
2023-01-17T14:08:16.025Z,13.00
2023-01-17T14:10:46.307Z,28.17
2023-01-17T14:13:34.161Z,24.95
2023-01-17T14:16:01.989Z,19.05
2023-01-17T14:18:32.893Z,18.63
2023-01-17T14:21:10.049Z,17.13
2023-01-17T14:24:02.099Z,20.38
2023-01-17T14:26:35.800Z,17.95
2023-01-17T14:29:21.921Z,15.52
2023-01-17T14:31:50.721Z,12.43
2023-01-17T14:34:22.685Z,18.40
2023-01-17T14:36:54.394Z,21.50
2023-01-17T14:39:25.691Z,15.05
2023-01-17T14:41:53.191Z,18.50
2023-01-17T14:44:23.992Z,10.85
2023-01-17T14:47:04.571Z,19.58
2023-01-17T14:49:35.390Z,13.55
2023-01-17T14:52:10.680Z,19.60
2023-01-17T14:54:38.425Z,14.43
2023-01-17T14:57:16.137Z,15.43
2023-01-17T14:59:43.776Z,12.18
2023-01-17T15:02:16.052Z,20.35
2023-01-17T15:04:45.112Z,15.50
2023-01-17T15:07:16.047Z,17.95
2023-01-17T15:09:47.046Z,14.93
2023-01-17T15:12:16.670Z,23.48
2023-01-17T15:14:47.336Z,20.08
2023-01-17T15:17:19.293Z,27.95
2023-01-17T15:19:48.773Z,16.90
2023-01-17T15:22:19.516Z,18.30
2023-01-17T15:24:51.532Z,25.80
2023-01-17T15:27:19.298Z,24.60
2023-01-17T15:29:47.524Z,29.13
2023-01-17T15:32:22.301Z,20.45
2023-01-17T15:34:53.354Z,20.08
2023-01-17T15:37:25.259Z,12.88
2023-01-17T15:40:06.370Z,24.25
2023-01-17T15:42:36.171Z,14.27
2023-01-17T15:45:07.883Z,14.70
2023-01-17T15:47:38.997Z,17.42
2023-01-17T15:50:24.374Z,23.75
2023-01-17T15:52:56.298Z,13.30
2023-01-17T15:55:32.037Z,16.23
2023-01-17T15:57:59.835Z,16.75
2023-01-17T16:00:37.092Z,16.05
2023-01-17T16:03:16.756Z,13.70
2023-01-17T16:05:47.095Z,24.30
2023-01-17T16:08:29.842Z,13.10
2023-01-17T16:11:01.809Z,15.27
2023-01-17T16:13:30.344Z,17.48
2023-01-17T16:16:10.612Z,26.02
2023-01-17T16:18:38.350Z,20.00
2023-01-17T16:21:09.374Z,26.98
2023-01-17T16:23:40.128Z,16.33
2023-01-17T16:26:33.113Z,20.23
2023-01-17T16:29:00.457Z,28.02
2023-01-17T16:31:27.905Z,23.67
2023-01-17T16:33:56.022Z,17.85
2023-01-17T16:36:26.137Z,23.05
2023-01-17T16:39:02.355Z,17.60
2023-01-17T16:41:30.939Z,24.80
2023-01-17T16:43:59.780Z,28.73
2023-01-17T16:46:27.756Z,24.63
2023-01-17T16:51:24.674Z,16.52
2023-01-17T16:53:52.325Z,22.58
2023-01-17T16:56:24.118Z,19.65
2023-01-17T16:58:52.416Z,23.17
2023-01-17T17:01:21.225Z,32.13
2023-01-17T17:03:48.885Z,27.85
2023-01-17T17:06:16.547Z,35.38
2023-01-17T17:08:45.669Z,30.75
2023-01-17T17:11:19.730Z,31.17
2023-01-17T17:13:51.695Z,26.08
2023-01-17T17:16:20.281Z,34.45
2023-01-17T17:18:48.543Z,28.58
2023-01-17T17:21:15.934Z,41.35
2023-01-17T17:23:43.398Z,26.85
2023-01-17T17:26:10.732Z,28.35
2023-01-17T17:28:38.504Z,35.78
2023-01-17T17:33:40.909Z,20.77
2023-01-17T17:36:11.169Z,22.30
2023-01-17T17:38:50.513Z,30.58
2023-01-17T17:41:18.820Z,28.95
2023-01-17T17:43:50.823Z,29.13
2023-01-17T17:46:18.345Z,25.48
2023-01-17T17:48:49.961Z,32.13
2023-01-17T17:51:24.090Z,30.17
2023-01-17T17:53:52.597Z,32.90
2023-01-17T17:56:25.582Z,35.35
2023-01-17T17:58:53.204Z,28.40
2023-01-17T18:01:24.096Z,26.17
2023-01-17T18:03:56.768Z,27.45
2023-01-17T18:06:24.688Z,28.52
2023-01-17T18:08:55.289Z,26.33
2023-01-17T18:11:24.087Z,28.30
2023-01-17T18:13:57.807Z,40.55
2023-01-17T18:28:47.928Z,59.20
2023-01-17T18:31:20.090Z,50.67
2023-01-17T18:33:47.492Z,53.63
2023-01-17T18:36:14.919Z,47.65
2023-01-17T18:38:43.870Z,66.53
2023-01-17T18:41:12.476Z,53.58
2023-01-17T18:43:42.951Z,56.85
2023-01-17T18:46:15.120Z,64.22
2023-01-17T18:48:43.011Z,71.57
2023-01-17T18:53:38.436Z,50.20
2023-01-17T18:56:09.405Z,50.28
2023-01-17T18:58:37.847Z,60.78
2023-01-17T19:01:09.253Z,53.90
2023-01-17T19:03:41.175Z,56.47
2023-01-17T19:06:10.518Z,55.63
2023-01-17T19:08:37.995Z,48.63
2023-01-17T19:11:05.553Z,46.38
2023-01-17T19:13:36.120Z,54.15
2023-01-17T19:16:04.079Z,56.22
2023-01-17T19:18:31.944Z,54.10
2023-01-17T19:21:05.501Z,51.88
2023-01-17T19:23:32.913Z,49.60
2023-01-17T19:26:00.324Z,61.45
2023-01-17T19:28:28.852Z,40.75
2023-01-17T19:31:03.955Z,43.83
2023-01-17T19:33:34.222Z,41.22
2023-01-17T19:36:03.528Z,37.45
2023-01-17T19:38:32.558Z,40.03
2023-01-17T19:41:07.553Z,44.55
2023-01-17T19:43:35.003Z,60.75
2023-01-17T19:46:04.955Z,51.40
2023-01-17T19:48:34.645Z,53.60
2023-01-17T19:51:05.839Z,42.95
2023-01-17T19:53:35.751Z,42.40
2023-01-17T19:56:07.195Z,39.17
2023-01-17T19:58:34.999Z,56.75
2023-01-17T20:06:04.409Z,43.67
2023-01-17T20:08:31.870Z,48.80
2023-01-17T20:11:04.212Z,47.47
2023-01-17T20:13:32.053Z,49.58
2023-01-17T20:18:31.233Z,67.38
2023-01-17T20:21:02.657Z,50.28
2023-01-17T20:23:30.131Z,53.25
2023-01-17T20:25:59.185Z,51.55
2023-01-17T20:28:28.919Z,56.95
2023-01-17T20:31:04.509Z,61.65
2023-01-17T20:33:33.584Z,65.03
2023-01-17T20:36:10.090Z,77.85
2023-01-17T20:38:47.330Z,77.95
2023-01-17T20:41:15.646Z,78.82
2023-01-17T20:43:44.923Z,81.10
2023-01-17T20:46:12.884Z,81.78
2023-01-17T20:48:44.287Z,68.22
2023-01-17T20:51:11.857Z,86.30
2023-01-17T20:53:39.792Z,70.03
2023-01-17T20:56:08.628Z,71.07
2023-01-17T20:58:36.157Z,82.38
2023-01-17T21:01:08.177Z,84.30
2023-01-17T21:03:36.214Z,66.22
2023-01-17T21:06:04.771Z,85.47
2023-01-17T21:08:34.325Z,72.80
2023-01-17T21:11:02.089Z,76.43
2023-01-17T21:13:29.557Z,74.75
2023-01-17T21:15:57.153Z,72.28
2023-01-17T21:18:26.527Z,69.93
2023-01-17T21:20:53.897Z,71.47
2023-01-17T21:23:23.454Z,65.47
2023-01-17T21:25:58.519Z,66.03
2023-01-17T21:28:27.043Z,65.80
2023-01-17T21:30:57.108Z,64.85
2023-01-17T21:33:26.643Z,60.40
2023-01-17T21:36:07.178Z,56.13
2023-01-17T21:38:34.524Z,57.05
2023-01-17T21:41:01.892Z,65.30
2023-01-17T21:43:29.254Z,53.05
2023-01-17T21:45:59.252Z,58.63
2023-01-17T21:48:28.015Z,57.88
2023-01-17T21:51:03.426Z,55.33
2023-01-17T21:53:33.059Z,56.70
2023-01-17T21:56:20.773Z,66.68
2023-01-17T21:58:54.970Z,61.13
2023-01-17T22:01:23.121Z,59.95
2023-01-17T22:03:53.382Z,55.50
2023-01-17T22:06:22.865Z,54.55
2023-01-17T22:08:53.292Z,55.35
2023-01-17T22:11:24.298Z,65.00
2023-01-17T22:13:52.080Z,52.03
2023-01-17T22:21:16.539Z,54.53
2023-01-17T22:23:46.232Z,54.08
2023-01-17T22:26:13.797Z,52.78
2023-01-17T22:28:41.201Z,58.97
2023-01-17T22:31:10.547Z,56.03
2023-01-17T22:33:40.946Z,61.47
2023-01-17T22:36:14.997Z,54.67
2023-01-17T22:38:46.680Z,56.78
2023-01-17T22:41:17.649Z,59.08
2023-01-17T22:43:46.695Z,65.53
2023-01-17T22:46:15.724Z,54.40
2023-01-17T22:48:48.516Z,62.80
2023-01-17T22:51:16.688Z,61.53
2023-01-17T22:53:48.319Z,69.15
2023-01-17T22:56:18.130Z,56.83
2023-01-17T22:58:47.993Z,60.63
2023-01-17T23:01:15.999Z,51.22
2023-01-17T23:03:46.164Z,54.80
2023-01-17T23:06:17.179Z,52.35
2023-01-17T23:08:46.716Z,60.72
2023-01-17T23:11:43.340Z,53.38
2023-01-17T23:14:15.502Z,50.15
2023-01-17T23:17:06.835Z,50.45
2023-01-17T23:19:37.493Z,56.45
2023-01-17T23:22:21.967Z,57.28
2023-01-17T23:24:55.677Z,47.28
2023-01-17T23:27:44.009Z,64.25
2023-01-17T23:30:12.631Z,59.30
2023-01-17T23:32:43.332Z,58.63
2023-01-17T23:35:10.969Z,71.15
2023-01-17T23:37:55.674Z,62.88
2023-01-17T23:40:26.855Z,55.55
2023-01-17T23:43:12.365Z,47.50
2023-01-17T23:45:40.348Z,56.63
2023-01-17T23:48:11.129Z,59.78
2023-01-17T23:50:40.172Z,50.85
2023-01-17T23:53:07.823Z,65.78
2023-01-17T23:58:05.552Z,49.50
